This is the latest recevied weather packets stored in our database for station/object KI4HRG. If no packets are shown the sender has not sent any weather packets the latest 10 day(s).
| Time | Temp. | Humidity | Pressure | Rain* | Wind** | Luminosity | Snow |
|---|---|---|---|---|---|---|---|
| 1777929960 | 26.11° C | 39% | 1013.6 hPa | 0 mm | - | 391 W/m² | - |
| 1777929658 | 26.11° C | 39% | 1013.3 hPa | 0 mm | - | 402 W/m² | - |
| 1777929355 | 26.11° C | 39% | 1013.7 hPa | 0 mm | - | 442 W/m² | - |
| 1777929051 | 25.56° C | 41% | 1013.6 hPa | 0 mm | - | 446 W/m² | - |
| 1777928749 | 26.11° C | 41% | 1013.6 hPa | 0 mm | - | 464 W/m² | - |
| 1777928445 | 26.11° C | 41% | 1013.5 hPa | 0 mm | - | 473 W/m² | - |
| 1777928143 | 26.11° C | 40% | 1013.6 hPa | 0 mm | - | 457 W/m² | - |
| 1777927841 | 26.11° C | 41% | 1013.7 hPa | 0 mm | - | 374 W/m² | - |
| 1777927539 | 25.56° C | 43% | 1013.6 hPa | 0 mm | - | 314 W/m² | - |
| 1777927238 | 26.11° C | 40% | 1013.8 hPa | 0 mm | - | 317 W/m² | - |
| 1777926935 | 26.67° C | 40% | 1013.8 hPa | 0 mm | - | 347 W/m² | - |
| 1777926632 | 26.11° C | 40% | 1013.8 hPa | 0 mm | - | 210 W/m² | - |
| 1777926328 | 27.22° C | 39% | 1013.8 hPa | 0 mm | - | 580 W/m² | - |
| 1777926025 | 26.67° C | 41% | 1013.8 hPa | 0 mm | - | 602 W/m² | - |
| 1777925722 | 26.11° C | 40% | 1013.9 hPa | 0 mm | - | 632 W/m² | - |
| 1777925420 | 26.11° C | 40% | 1014 hPa | 0 mm | - | 634 W/m² | - |
| 1777925116 | 25.56° C | 43% | 1014 hPa | 0 mm | - | 591 W/m² | - |
| 1777924813 | 26.67° C | 40% | 1013.9 hPa | 0 mm | - | 647 W/m² | - |
| 1777924509 | 26.11° C | 40% | 1014 hPa | 0 mm | - | 466 W/m² | - |
| 1777924206 | 25.56° C | 40% | 1014.3 hPa | 0 mm | - | 528 W/m² | - |
| 1777923902 | 25.56° C | 41% | 1014.4 hPa | 0 mm | - | 701 W/m² | - |
| 1777923597 | 25.56° C | 43% | 1014.4 hPa | 0 mm | - | 605 W/m² | - |
| 1777923295 | 26.11° C | 42% | 1014.3 hPa | 0 mm | - | 664 W/m² | - |
| 1777922993 | 25.56° C | 40% | 1014.6 hPa | 0 mm | - | 718 W/m² | - |
| 1777922690 | 25° C | 43% | 1014.6 hPa | 0 mm | - | 607 W/m² | - |
* Rain latest hour (hover to see other rain measurements)
** Current wind speed in m/s (hover to see current wind gust speed)